Dwellingup, Australia
Current Conditions -  °F | °C
As of 11:00 PM on Tuesday 21 Oct 2014 (Local Time) from YPJT Reporting Station
Clear Clear  
Wind Chill: 59°   Ceiling: Unl
Heat Index: 59°   Visibility: 6mi
Dew Point: 50°   Wind: 8mph
Humidity: 72%   Direction: 130°SE
Pressure: 30.03"   Gusts: NA
Location:  32.71°S, 116.06°E
Report Text: YPJT 211500Z AUTO 13007KT 9999 // NCD 15/10 Q1017
Loading
Personal Weather Stations






























Interactive Weather Map
Tropical Storm Tracking
New forecast layout! Learn more

10-Day Weather Forecast

Advertisements
Track Severe Weather on mobile